sensor_id;sensor_type;location;lat;lon;timestamp;P1;durP1;ratioP1;P2;durP2;ratioP2
52468;SDS011;38381;53.688;10.776;2023-01-19T00:00:09;12.75;;;9.68;;
52468;SDS011;38381;53.688;10.776;2023-01-19T00:05:11;13.77;;;10.93;;
52468;SDS011;38381;53.688;10.776;2023-01-19T00:10:11;14.90;;;11.50;;
52468;SDS011;38381;53.688;10.776;2023-01-19T00:15:11;13.20;;;11.30;;
52468;SDS011;38381;53.688;10.776;2023-01-19T00:20:12;14.10;;;10.43;;
52468;SDS011;38381;53.688;10.776;2023-01-19T00:25:12;13.98;;;11.48;;
52468;SDS011;38381;53.688;10.776;2023-01-19T00:30:13;13.25;;;10.98;;
52468;SDS011;38381;53.688;10.776;2023-01-19T00:35:13;16.83;;;12.27;;
52468;SDS011;38381;53.688;10.776;2023-01-19T00:40:14;10.80;;;9.73;;
52468;SDS011;38381;53.688;10.776;2023-01-19T00:45:15;12.02;;;9.82;;
52468;SDS011;38381;53.688;10.776;2023-01-19T00:50:17;13.23;;;11.95;;
52468;SDS011;38381;53.688;10.776;2023-01-19T00:55:18;12.85;;;10.65;;
52468;SDS011;38381;53.688;10.776;2023-01-19T01:00:18;12.25;;;11.05;;
52468;SDS011;38381;53.688;10.776;2023-01-19T01:05:20;13.40;;;10.43;;
52468;SDS011;38381;53.688;10.776;2023-01-19T01:10:22;14.25;;;10.27;;
52468;SDS011;38381;53.688;10.776;2023-01-19T01:15:25;13.05;;;10.57;;
52468;SDS011;38381;53.688;10.776;2023-01-19T01:20:26;11.88;;;9.80;;
52468;SDS011;38381;53.688;10.776;2023-01-19T01:25:29;15.27;;;11.13;;
52468;SDS011;38381;53.688;10.776;2023-01-19T01:30:30;13.13;;;9.93;;
52468;SDS011;38381;53.688;10.776;2023-01-19T01:35:30;13.10;;;10.00;;
52468;SDS011;38381;53.688;10.776;2023-01-19T01:45:34;11.82;;;9.82;;
52468;SDS011;38381;53.688;10.776;2023-01-19T01:50:38;15.05;;;10.13;;
52468;SDS011;38381;53.688;10.776;2023-01-19T01:56:07;12.00;;;9.73;;
52468;SDS011;38381;53.688;10.776;2023-01-19T02:01:11;12.80;;;10.05;;
52468;SDS011;38381;53.688;10.776;2023-01-19T02:06:44;11.02;;;9.43;;
52468;SDS011;38381;53.688;10.776;2023-01-19T02:12:04;13.40;;;9.10;;
52468;SDS011;38381;53.688;10.776;2023-01-19T02:17:24;10.23;;;9.13;;
52468;SDS011;38381;53.688;10.776;2023-01-19T02:22:28;12.00;;;9.73;;
52468;SDS011;38381;53.688;10.776;2023-01-19T02:27:35;11.32;;;10.15;;
52468;SDS011;38381;53.688;10.776;2023-01-19T02:32:36;13.73;;;9.87;;
52468;SDS011;38381;53.688;10.776;2023-01-19T02:37:37;11.23;;;9.88;;
52468;SDS011;38381;53.688;10.776;2023-01-19T02:47:46;11.68;;;9.40;;
52468;SDS011;38381;53.688;10.776;2023-01-19T02:52:49;11.70;;;9.55;;
52468;SDS011;38381;53.688;10.776;2023-01-19T03:03:34;14.27;;;10.13;;
52468;SDS011;38381;53.688;10.776;2023-01-19T03:09:08;13.55;;;9.50;;
52468;SDS011;38381;53.688;10.776;2023-01-19T03:14:19;13.98;;;11.13;;
52468;SDS011;38381;53.688;10.776;2023-01-19T03:19:24;13.38;;;9.52;;
52468;SDS011;38381;53.688;10.776;2023-01-19T03:24:28;14.15;;;9.60;;
52468;SDS011;38381;53.688;10.776;2023-01-19T03:29:33;11.15;;;10.05;;
52468;SDS011;38381;53.688;10.776;2023-01-19T03:34:36;10.98;;;9.50;;
52468;SDS011;38381;53.688;10.776;2023-01-19T03:39:38;10.48;;;8.57;;
52468;SDS011;38381;53.688;10.776;2023-01-19T03:44:41;12.07;;;9.45;;
52468;SDS011;38381;53.688;10.776;2023-01-19T03:49:44;10.27;;;8.07;;
52468;SDS011;38381;53.688;10.776;2023-01-19T03:54:46;11.05;;;8.07;;
52468;SDS011;38381;53.688;10.776;2023-01-19T03:59:47;10.15;;;8.65;;
52468;SDS011;38381;53.688;10.776;2023-01-19T04:04:48;14.77;;;9.43;;
52468;SDS011;38381;53.688;10.776;2023-01-19T04:09:49;9.95;;;8.85;;
52468;SDS011;38381;53.688;10.776;2023-01-19T04:14:49;12.97;;;10.23;;
52468;SDS011;38381;53.688;10.776;2023-01-19T04:19:49;13.15;;;10.35;;
52468;SDS011;38381;53.688;10.776;2023-01-19T04:24:50;10.80;;;8.55;;
52468;SDS011;38381;53.688;10.776;2023-01-19T04:29:51;9.90;;;8.90;;
52468;SDS011;38381;53.688;10.776;2023-01-19T04:34:51;11.63;;;9.02;;
52468;SDS011;38381;53.688;10.776;2023-01-19T04:39:51;11.63;;;9.73;;
52468;SDS011;38381;53.688;10.776;2023-01-19T04:44:52;10.00;;;8.38;;
52468;SDS011;38381;53.688;10.776;2023-01-19T04:49:53;10.90;;;9.77;;
52468;SDS011;38381;53.688;10.776;2023-01-19T04:54:55;14.30;;;9.57;;
52468;SDS011;38381;53.688;10.776;2023-01-19T04:59:55;11.75;;;8.90;;
52468;SDS011;38381;53.688;10.776;2023-01-19T05:04:56;10.98;;;9.18;;
52468;SDS011;38381;53.688;10.776;2023-01-19T05:09:57;13.50;;;10.10;;
52468;SDS011;38381;53.688;10.776;2023-01-19T05:14:57;12.15;;;9.98;;
52468;SDS011;38381;53.688;10.776;2023-01-19T05:19:58;11.18;;;8.48;;
52468;SDS011;38381;53.688;10.776;2023-01-19T05:24:58;11.55;;;9.52;;
52468;SDS011;38381;53.688;10.776;2023-01-19T05:30:00;11.00;;;9.90;;
52468;SDS011;38381;53.688;10.776;2023-01-19T05:35:01;9.75;;;8.75;;
52468;SDS011;38381;53.688;10.776;2023-01-19T05:40:01;11.77;;;9.93;;
52468;SDS011;38381;53.688;10.776;2023-01-19T05:45:02;9.82;;;8.77;;
52468;SDS011;38381;53.688;10.776;2023-01-19T05:50:03;10.38;;;9.15;;
52468;SDS011;38381;53.688;10.776;2023-01-19T05:55:05;12.43;;;9.40;;
52468;SDS011;38381;53.688;10.776;2023-01-19T06:00:06;10.90;;;9.30;;
52468;SDS011;38381;53.688;10.776;2023-01-19T06:05:07;11.00;;;9.57;;
52468;SDS011;38381;53.688;10.776;2023-01-19T06:10:08;10.93;;;9.70;;
52468;SDS011;38381;53.688;10.776;2023-01-19T06:15:09;11.63;;;10.35;;
52468;SDS011;38381;53.688;10.776;2023-01-19T06:20:09;11.73;;;9.93;;
52468;SDS011;38381;53.688;10.776;2023-01-19T06:25:11;12.27;;;10.95;;
52468;SDS011;38381;53.688;10.776;2023-01-19T06:30:12;11.35;;;10.02;;
52468;SDS011;38381;53.688;10.776;2023-01-19T06:35:13;14.13;;;11.82;;
52468;SDS011;38381;53.688;10.776;2023-01-19T06:40:13;11.98;;;9.65;;
52468;SDS011;38381;53.688;10.776;2023-01-19T06:45:14;14.60;;;10.68;;
52468;SDS011;38381;53.688;10.776;2023-01-19T06:50:15;15.35;;;10.77;;
52468;SDS011;38381;53.688;10.776;2023-01-19T06:55:16;12.85;;;10.48;;
52468;SDS011;38381;53.688;10.776;2023-01-19T07:00:16;13.80;;;11.15;;
52468;SDS011;38381;53.688;10.776;2023-01-19T07:05:17;12.80;;;10.80;;
52468;SDS011;38381;53.688;10.776;2023-01-19T07:10:17;15.68;;;12.35;;
52468;SDS011;38381;53.688;10.776;2023-01-19T07:15:18;12.00;;;10.32;;
52468;SDS011;38381;53.688;10.776;2023-01-19T07:20:20;29.63;;;21.63;;
52468;SDS011;38381;53.688;10.776;2023-01-19T07:25:21;13.38;;;11.98;;
52468;SDS011;38381;53.688;10.776;2023-01-19T07:30:22;13.05;;;11.00;;
52468;SDS011;38381;53.688;10.776;2023-01-19T07:35:25;18.25;;;10.38;;
52468;SDS011;38381;53.688;10.776;2023-01-19T07:40:26;14.05;;;11.20;;
52468;SDS011;38381;53.688;10.776;2023-01-19T07:45:26;12.75;;;11.38;;
52468;SDS011;38381;53.688;10.776;2023-01-19T07:50:27;13.45;;;9.93;;
52468;SDS011;38381;53.688;10.776;2023-01-19T07:55:28;14.02;;;11.57;;
52468;SDS011;38381;53.688;10.776;2023-01-19T08:00:28;14.82;;;12.45;;
52468;SDS011;38381;53.688;10.776;2023-01-19T08:05:30;15.63;;;10.95;;
52468;SDS011;38381;53.688;10.776;2023-01-19T08:15:35;14.27;;;10.25;;
52468;SDS011;38381;53.688;10.776;2023-01-19T08:20:36;13.30;;;11.10;;
52468;SDS011;38381;53.688;10.776;2023-01-19T08:25:37;16.95;;;12.27;;
52468;SDS011;38381;53.688;10.776;2023-01-19T08:30:46;16.27;;;11.50;;
52468;SDS011;38381;53.688;10.776;2023-01-19T08:35:52;19.83;;;11.65;;
52468;SDS011;38381;53.688;10.776;2023-01-19T08:40:53;15.98;;;10.93;;
52468;SDS011;38381;53.688;10.776;2023-01-19T08:45:53;13.63;;;11.80;;
52468;SDS011;38381;53.688;10.776;2023-01-19T08:50:55;14.10;;;11.88;;
52468;SDS011;38381;53.688;10.776;2023-01-19T08:55:56;13.88;;;11.93;;
52468;SDS011;38381;53.688;10.776;2023-01-19T09:00:58;15.75;;;11.70;;
52468;SDS011;38381;53.688;10.776;2023-01-19T09:05:59;15.55;;;11.77;;
52468;SDS011;38381;53.688;10.776;2023-01-19T09:10:59;15.05;;;13.43;;
52468;SDS011;38381;53.688;10.776;2023-01-19T09:16:00;14.40;;;12.50;;
52468;SDS011;38381;53.688;10.776;2023-01-19T09:21:02;15.18;;;11.55;;
52468;SDS011;38381;53.688;10.776;2023-01-19T09:26:03;16.33;;;12.73;;
52468;SDS011;38381;53.688;10.776;2023-01-19T09:31:05;16.65;;;13.18;;
52468;SDS011;38381;53.688;10.776;2023-01-19T09:36:06;23.33;;;13.63;;
52468;SDS011;38381;53.688;10.776;2023-01-19T09:41:15;17.42;;;14.00;;
52468;SDS011;38381;53.688;10.776;2023-01-19T09:46:29;13.95;;;11.20;;
52468;SDS011;38381;53.688;10.776;2023-01-19T09:51:35;17.13;;;11.02;;
52468;SDS011;38381;53.688;10.776;2023-01-19T09:56:38;16.15;;;11.55;;
52468;SDS011;38381;53.688;10.776;2023-01-19T10:01:49;14.93;;;13.50;;
52468;SDS011;38381;53.688;10.776;2023-01-19T10:12:32;10.88;;;9.77;;
52468;SDS011;38381;53.688;10.776;2023-01-19T10:17:46;11.85;;;10.65;;
52468;SDS011;38381;53.688;10.776;2023-01-19T10:22:54;11.93;;;10.73;;
52468;SDS011;38381;53.688;10.776;2023-01-19T10:27:58;15.55;;;11.30;;
52468;SDS011;38381;53.688;10.776;2023-01-19T10:32:59;13.65;;;12.35;;
52468;SDS011;38381;53.688;10.776;2023-01-19T10:38:00;11.25;;;10.23;;
52468;SDS011;38381;53.688;10.776;2023-01-19T10:43:27;12.68;;;10.07;;
52468;SDS011;38381;53.688;10.776;2023-01-19T10:48:36;13.45;;;9.52;;
52468;SDS011;38381;53.688;10.776;2023-01-19T10:53:39;14.52;;;9.93;;
52468;SDS011;38381;53.688;10.776;2023-01-19T10:58:42;12.30;;;9.68;;
52468;SDS011;38381;53.688;10.776;2023-01-19T11:03:43;9.88;;;8.18;;
52468;SDS011;38381;53.688;10.776;2023-01-19T11:08:45;11.95;;;9.88;;
52468;SDS011;38381;53.688;10.776;2023-01-19T11:19:01;11.27;;;9.27;;
52468;SDS011;38381;53.688;10.776;2023-01-19T11:24:03;11.38;;;8.68;;
52468;SDS011;38381;53.688;10.776;2023-01-19T11:29:21;12.90;;;9.02;;
52468;SDS011;38381;53.688;10.776;2023-01-19T11:34:31;9.98;;;8.90;;
52468;SDS011;38381;53.688;10.776;2023-01-19T11:39:50;9.52;;;8.50;;
52468;SDS011;38381;53.688;10.776;2023-01-19T11:50:20;9.45;;;7.90;;
52468;SDS011;38381;53.688;10.776;2023-01-19T11:55:44;10.23;;;8.35;;
52468;SDS011;38381;53.688;10.776;2023-01-19T12:06:24;9.57;;;8.65;;
52468;SDS011;38381;53.688;10.776;2023-01-19T12:11:39;9.95;;;8.35;;
52468;SDS011;38381;53.688;10.776;2023-01-19T12:16:43;10.23;;;8.73;;
52468;SDS011;38381;53.688;10.776;2023-01-19T12:21:45;9.45;;;8.55;;
52468;SDS011;38381;53.688;10.776;2023-01-19T12:26:58;9.05;;;7.80;;
52468;SDS011;38381;53.688;10.776;2023-01-19T12:42:26;10.02;;;9.05;;
52468;SDS011;38381;53.688;10.776;2023-01-19T12:47:27;10.30;;;9.20;;
52468;SDS011;38381;53.688;10.776;2023-01-19T12:57:33;9.02;;;7.57;;
52468;SDS011;38381;53.688;10.776;2023-01-19T13:02:41;11.38;;;8.75;;
52468;SDS011;38381;53.688;10.776;2023-01-19T13:13:17;10.90;;;8.13;;
52468;SDS011;38381;53.688;10.776;2023-01-19T13:18:28;11.05;;;8.32;;
52468;SDS011;38381;53.688;10.776;2023-01-19T13:28:49;9.85;;;8.65;;
52468;SDS011;38381;53.688;10.776;2023-01-19T13:33:54;11.13;;;9.57;;
52468;SDS011;38381;53.688;10.776;2023-01-19T13:38:58;10.45;;;8.90;;
52468;SDS011;38381;53.688;10.776;2023-01-19T13:44:12;9.20;;;8.27;;
52468;SDS011;38381;53.688;10.776;2023-01-19T13:54:48;11.15;;;9.48;;
52468;SDS011;38381;53.688;10.776;2023-01-19T14:00:03;13.00;;;9.95;;
52468;SDS011;38381;53.688;10.776;2023-01-19T14:05:23;14.98;;;9.32;;
52468;SDS011;38381;53.688;10.776;2023-01-19T14:10:31;9.98;;;8.32;;
52468;SDS011;38381;53.688;10.776;2023-01-19T14:15:33;10.70;;;8.90;;
52468;SDS011;38381;53.688;10.776;2023-01-19T14:20:33;11.38;;;9.27;;
52468;SDS011;38381;53.688;10.776;2023-01-19T14:25:36;11.02;;;9.93;;
52468;SDS011;38381;53.688;10.776;2023-01-19T14:30:38;12.73;;;10.43;;
52468;SDS011;38381;53.688;10.776;2023-01-19T14:35:39;13.25;;;10.57;;
52468;SDS011;38381;53.688;10.776;2023-01-19T14:40:39;13.75;;;11.02;;
52468;SDS011;38381;53.688;10.776;2023-01-19T14:45:39;10.27;;;8.65;;
52468;SDS011;38381;53.688;10.776;2023-01-19T14:50:46;10.55;;;9.38;;
52468;SDS011;38381;53.688;10.776;2023-01-19T14:55:53;12.82;;;9.60;;
52468;SDS011;38381;53.688;10.776;2023-01-19T15:00:58;11.82;;;10.35;;
52468;SDS011;38381;53.688;10.776;2023-01-19T15:05:59;10.93;;;9.25;;
52468;SDS011;38381;53.688;10.776;2023-01-19T15:11:01;13.90;;;9.52;;
52468;SDS011;38381;53.688;10.776;2023-01-19T15:16:09;12.00;;;10.00;;
52468;SDS011;38381;53.688;10.776;2023-01-19T15:21:11;11.25;;;9.85;;
52468;SDS011;38381;53.688;10.776;2023-01-19T15:26:15;12.60;;;9.85;;
52468;SDS011;38381;53.688;10.776;2023-01-19T15:31:17;13.73;;;9.70;;
52468;SDS011;38381;53.688;10.776;2023-01-19T15:36:20;10.40;;;9.30;;
52468;SDS011;38381;53.688;10.776;2023-01-19T15:41:22;11.52;;;9.70;;
52468;SDS011;38381;53.688;10.776;2023-01-19T15:46:25;14.15;;;10.07;;
52468;SDS011;38381;53.688;10.776;2023-01-19T15:51:26;12.63;;;9.90;;
52468;SDS011;38381;53.688;10.776;2023-01-19T15:56:27;10.82;;;9.35;;
52468;SDS011;38381;53.688;10.776;2023-01-19T16:01:29;11.00;;;9.80;;
52468;SDS011;38381;53.688;10.776;2023-01-19T16:06:33;12.48;;;10.10;;
52468;SDS011;38381;53.688;10.776;2023-01-19T16:11:34;13.57;;;10.00;;
52468;SDS011;38381;53.688;10.776;2023-01-19T16:16:34;12.02;;;9.85;;
52468;SDS011;38381;53.688;10.776;2023-01-19T16:21:35;13.65;;;10.18;;
52468;SDS011;38381;53.688;10.776;2023-01-19T16:26:35;12.77;;;10.45;;
52468;SDS011;38381;53.688;10.776;2023-01-19T16:31:36;12.10;;;10.75;;
52468;SDS011;38381;53.688;10.776;2023-01-19T16:36:38;10.53;;;9.43;;
52468;SDS011;38381;53.688;10.776;2023-01-19T16:41:40;12.38;;;10.85;;
52468;SDS011;38381;53.688;10.776;2023-01-19T16:46:42;14.68;;;11.10;;
52468;SDS011;38381;53.688;10.776;2023-01-19T16:51:44;12.48;;;10.13;;
52468;SDS011;38381;53.688;10.776;2023-01-19T16:56:45;16.70;;;10.18;;
52468;SDS011;38381;53.688;10.776;2023-01-19T17:01:47;14.23;;;11.00;;
52468;SDS011;38381;53.688;10.776;2023-01-19T17:06:51;14.25;;;10.07;;
52468;SDS011;38381;53.688;10.776;2023-01-19T17:11:52;15.65;;;9.95;;
52468;SDS011;38381;53.688;10.776;2023-01-19T17:16:53;14.32;;;11.52;;
52468;SDS011;38381;53.688;10.776;2023-01-19T17:21:53;15.55;;;10.73;;
52468;SDS011;38381;53.688;10.776;2023-01-19T17:26:54;17.33;;;11.57;;
52468;SDS011;38381;53.688;10.776;2023-01-19T17:31:54;17.30;;;10.95;;
52468;SDS011;38381;53.688;10.776;2023-01-19T17:36:54;14.73;;;11.75;;
52468;SDS011;38381;53.688;10.776;2023-01-19T17:42:01;13.55;;;10.38;;
52468;SDS011;38381;53.688;10.776;2023-01-19T17:47:02;16.05;;;10.23;;
52468;SDS011;38381;53.688;10.776;2023-01-19T17:52:02;15.07;;;12.70;;
52468;SDS011;38381;53.688;10.776;2023-01-19T17:57:03;12.93;;;10.35;;
52468;SDS011;38381;53.688;10.776;2023-01-19T18:02:03;19.73;;;11.50;;
52468;SDS011;38381;53.688;10.776;2023-01-19T18:07:04;17.70;;;11.52;;
52468;SDS011;38381;53.688;10.776;2023-01-19T18:12:05;18.80;;;11.73;;
52468;SDS011;38381;53.688;10.776;2023-01-19T18:17:05;14.80;;;11.38;;
52468;SDS011;38381;53.688;10.776;2023-01-19T18:22:06;16.90;;;11.45;;
52468;SDS011;38381;53.688;10.776;2023-01-19T18:27:06;14.52;;;10.18;;
52468;SDS011;38381;53.688;10.776;2023-01-19T18:32:07;17.08;;;10.82;;
52468;SDS011;38381;53.688;10.776;2023-01-19T18:37:08;15.38;;;10.32;;
52468;SDS011;38381;53.688;10.776;2023-01-19T18:42:08;12.25;;;10.68;;
52468;SDS011;38381;53.688;10.776;2023-01-19T18:47:08;19.98;;;13.75;;
52468;SDS011;38381;53.688;10.776;2023-01-19T18:52:09;18.00;;;10.95;;
52468;SDS011;38381;53.688;10.776;2023-01-19T18:57:09;15.13;;;11.60;;
52468;SDS011;38381;53.688;10.776;2023-01-19T19:02:10;13.07;;;11.25;;
52468;SDS011;38381;53.688;10.776;2023-01-19T19:07:10;14.63;;;10.82;;
52468;SDS011;38381;53.688;10.776;2023-01-19T19:12:11;14.25;;;11.00;;
52468;SDS011;38381;53.688;10.776;2023-01-19T19:17:11;16.67;;;12.00;;
52468;SDS011;38381;53.688;10.776;2023-01-19T19:22:12;24.98;;;16.88;;
52468;SDS011;38381;53.688;10.776;2023-01-19T19:27:12;23.70;;;15.25;;
52468;SDS011;38381;53.688;10.776;2023-01-19T19:32:13;16.48;;;13.10;;
52468;SDS011;38381;53.688;10.776;2023-01-19T19:37:15;22.90;;;13.50;;
52468;SDS011;38381;53.688;10.776;2023-01-19T19:42:16;14.52;;;11.10;;
52468;SDS011;38381;53.688;10.776;2023-01-19T19:47:16;14.23;;;10.07;;
52468;SDS011;38381;53.688;10.776;2023-01-19T19:52:17;12.60;;;10.38;;
52468;SDS011;38381;53.688;10.776;2023-01-19T19:57:18;14.57;;;10.27;;
52468;SDS011;38381;53.688;10.776;2023-01-19T20:02:18;15.50;;;12.27;;
52468;SDS011;38381;53.688;10.776;2023-01-19T20:07:18;21.25;;;13.43;;
52468;SDS011;38381;53.688;10.776;2023-01-19T20:12:19;23.70;;;17.50;;
52468;SDS011;38381;53.688;10.776;2023-01-19T20:17:19;18.70;;;11.88;;
52468;SDS011;38381;53.688;10.776;2023-01-19T20:22:20;20.90;;;14.55;;
52468;SDS011;38381;53.688;10.776;2023-01-19T20:27:20;13.38;;;9.95;;
52468;SDS011;38381;53.688;10.776;2023-01-19T20:32:20;11.43;;;8.13;;
52468;SDS011;38381;53.688;10.776;2023-01-19T20:37:21;10.30;;;8.30;;
52468;SDS011;38381;53.688;10.776;2023-01-19T20:42:21;11.68;;;7.57;;
52468;SDS011;38381;53.688;10.776;2023-01-19T20:47:22;15.05;;;8.43;;
52468;SDS011;38381;53.688;10.776;2023-01-19T20:52:22;15.88;;;7.65;;
52468;SDS011;38381;53.688;10.776;2023-01-19T20:57:22;10.98;;;6.68;;
52468;SDS011;38381;53.688;10.776;2023-01-19T21:02:23;10.02;;;6.78;;
52468;SDS011;38381;53.688;10.776;2023-01-19T21:07:25;8.95;;;7.22;;
52468;SDS011;38381;53.688;10.776;2023-01-19T21:12:25;15.45;;;9.07;;
52468;SDS011;38381;53.688;10.776;2023-01-19T21:17:26;30.77;;;18.25;;
52468;SDS011;38381;53.688;10.776;2023-01-19T21:22:26;11.05;;;8.80;;
52468;SDS011;38381;53.688;10.776;2023-01-19T21:27:27;8.25;;;6.53;;
52468;SDS011;38381;53.688;10.776;2023-01-19T21:32:28;6.50;;;4.88;;
52468;SDS011;38381;53.688;10.776;2023-01-19T21:37:28;8.75;;;5.13;;
52468;SDS011;38381;53.688;10.776;2023-01-19T21:42:30;7.25;;;4.53;;
52468;SDS011;38381;53.688;10.776;2023-01-19T21:47:51;8.07;;;5.70;;
52468;SDS011;38381;53.688;10.776;2023-01-19T21:52:52;7.70;;;5.80;;
52468;SDS011;38381;53.688;10.776;2023-01-19T21:57:53;6.43;;;4.35;;
52468;SDS011;38381;53.688;10.776;2023-01-19T22:02:57;8.02;;;4.95;;
52468;SDS011;38381;53.688;10.776;2023-01-19T22:07:58;7.53;;;4.45;;
52468;SDS011;38381;53.688;10.776;2023-01-19T22:12:58;9.30;;;4.97;;
52468;SDS011;38381;53.688;10.776;2023-01-19T22:17:58;7.73;;;5.30;;
52468;SDS011;38381;53.688;10.776;2023-01-19T22:22:59;5.63;;;3.90;;
52468;SDS011;38381;53.688;10.776;2023-01-19T22:27:59;4.97;;;4.28;;
52468;SDS011;38381;53.688;10.776;2023-01-19T22:32:59;8.48;;;4.50;;
52468;SDS011;38381;53.688;10.776;2023-01-19T22:38:00;8.82;;;4.57;;
52468;SDS011;38381;53.688;10.776;2023-01-19T22:43:01;8.02;;;4.22;;
52468;SDS011;38381;53.688;10.776;2023-01-19T22:48:01;12.02;;;5.57;;
52468;SDS011;38381;53.688;10.776;2023-01-19T22:53:02;4.78;;;4.20;;
52468;SDS011;38381;53.688;10.776;2023-01-19T22:58:02;7.95;;;4.93;;
52468;SDS011;38381;53.688;10.776;2023-01-19T23:03:02;6.83;;;4.30;;
52468;SDS011;38381;53.688;10.776;2023-01-19T23:08:03;4.57;;;3.58;;
52468;SDS011;38381;53.688;10.776;2023-01-19T23:13:04;5.95;;;4.70;;
52468;SDS011;38381;53.688;10.776;2023-01-19T23:18:04;8.15;;;5.47;;
52468;SDS011;38381;53.688;10.776;2023-01-19T23:23:04;10.70;;;5.45;;
52468;SDS011;38381;53.688;10.776;2023-01-19T23:28:05;8.05;;;5.22;;
52468;SDS011;38381;53.688;10.776;2023-01-19T23:33:06;6.55;;;4.22;;
52468;SDS011;38381;53.688;10.776;2023-01-19T23:38:06;8.35;;;5.70;;
52468;SDS011;38381;53.688;10.776;2023-01-19T23:43:06;8.23;;;5.30;;
52468;SDS011;38381;53.688;10.776;2023-01-19T23:48:07;8.48;;;5.55;;
52468;SDS011;38381;53.688;10.776;2023-01-19T23:53:07;7.40;;;5.78;;
52468;SDS011;38381;53.688;10.776;2023-01-19T23:58:08;9.93;;;6.85;;
